sensor_id;sensor_type;location;lat;lon;timestamp;pressure;altitude;pressure_sealevel;temperature;humidity
47809;BME280;33573;38.790;-77.084;2023-09-19T00:01:13;100854.39;;;25.21;31.25
47809;BME280;33573;38.790;-77.084;2023-09-19T00:03:34;100854.74;;;25.00;31.33
47809;BME280;33573;38.790;-77.084;2023-09-19T00:06:00;100860.99;;;25.24;30.16
47809;BME280;33573;38.790;-77.084;2023-09-19T00:08:28;100863.24;;;25.12;31.16
47809;BME280;33573;38.790;-77.084;2023-09-19T00:10:50;100865.36;;;25.21;29.92
47809;BME280;33573;38.790;-77.084;2023-09-19T00:13:15;100866.55;;;25.71;30.37
47809;BME280;33573;38.790;-77.084;2023-09-19T00:15:45;100867.40;;;25.55;30.67
47809;BME280;33573;38.790;-77.084;2023-09-19T00:18:06;100869.32;;;25.32;30.12
47809;BME280;33573;38.790;-77.084;2023-09-19T00:20:31;100876.46;;;25.31;30.76
47809;BME280;33573;38.790;-77.084;2023-09-19T00:23:01;100881.05;;;25.44;29.48
47809;BME280;33573;38.790;-77.084;2023-09-19T00:25:21;100887.96;;;25.72;29.82
47809;BME280;33573;38.790;-77.084;2023-09-19T00:27:42;100894.78;;;25.62;29.61
47809;BME280;33573;38.790;-77.084;2023-09-19T00:30:17;100897.89;;;25.39;29.56
47809;BME280;33573;38.790;-77.084;2023-09-19T00:32:38;100903.18;;;25.14;29.81
47809;BME280;33573;38.790;-77.084;2023-09-19T00:35:04;100903.33;;;25.00;30.27
47809;BME280;33573;38.790;-77.084;2023-09-19T00:37:33;100904.97;;;25.27;30.02
47809;BME280;33573;38.790;-77.084;2023-09-19T00:39:49;100909.29;;;25.34;30.27
47809;BME280;33573;38.790;-77.084;2023-09-19T00:42:20;100912.33;;;25.24;29.92
47809;BME280;33573;38.790;-77.084;2023-09-19T00:44:49;100919.06;;;25.09;30.88
47809;BME280;33573;38.790;-77.084;2023-09-19T00:47:10;100923.98;;;25.14;30.51
47809;BME280;33573;38.790;-77.084;2023-09-19T00:49:35;100927.86;;;25.13;30.07
47809;BME280;33573;38.790;-77.084;2023-09-19T00:51:55;100932.93;;;25.35;30.47
47809;BME280;33573;38.790;-77.084;2023-09-19T00:54:20;100932.73;;;24.91;30.80
47809;BME280;33573;38.790;-77.084;2023-09-19T00:56:46;100938.01;;;24.86;30.91
47809;BME280;33573;38.790;-77.084;2023-09-19T00:59:20;100940.23;;;24.92;30.65
47809;BME280;33573;38.790;-77.084;2023-09-19T01:01:37;100947.19;;;24.83;31.07
47809;BME280;33573;38.790;-77.084;2023-09-19T01:04:02;100954.63;;;24.71;31.35
47809;BME280;33573;38.790;-77.084;2023-09-19T01:06:27;100959.84;;;24.79;31.04
47809;BME280;33573;38.790;-77.084;2023-09-19T01:08:53;100962.78;;;25.00;31.00
47809;BME280;33573;38.790;-77.084;2023-09-19T01:11:31;100962.57;;;24.57;31.48
47809;BME280;33573;38.790;-77.084;2023-09-19T01:13:56;100961.40;;;24.55;31.22
47809;BME280;33573;38.790;-77.084;2023-09-19T01:16:19;100963.46;;;23.95;31.63
47809;BME280;33573;38.790;-77.084;2023-09-19T01:18:47;100965.68;;;24.43;31.32
47809;BME280;33573;38.790;-77.084;2023-09-19T01:21:11;100973.13;;;24.06;32.54
47809;BME280;33573;38.790;-77.084;2023-09-19T01:23:33;100977.16;;;23.93;31.74
47809;BME280;33573;38.790;-77.084;2023-09-19T01:26:05;100980.13;;;24.43;31.49
47809;BME280;33573;38.790;-77.084;2023-09-19T01:28:25;100978.58;;;24.68;31.84
47809;BME280;33573;38.790;-77.084;2023-09-19T01:30:47;100981.83;;;24.90;30.74
47809;BME280;33573;38.790;-77.084;2023-09-19T01:33:11;100981.21;;;24.88;31.19
47809;BME280;33573;38.790;-77.084;2023-09-19T01:35:31;100985.97;;;24.34;31.75
47809;BME280;33573;38.790;-77.084;2023-09-19T01:37:57;100990.57;;;24.49;31.30
47809;BME280;33573;38.790;-77.084;2023-09-19T01:40:31;100989.46;;;24.57;31.43
47809;BME280;33573;38.790;-77.084;2023-09-19T01:42:56;100990.16;;;24.58;31.76
47809;BME280;33573;38.790;-77.084;2023-09-19T01:45:26;100994.48;;;24.55;31.34
47809;BME280;33573;38.790;-77.084;2023-09-19T01:47:48;100998.53;;;24.18;31.73
47809;BME280;33573;38.790;-77.084;2023-09-19T01:50:10;101003.72;;;23.91;32.05
47809;BME280;33573;38.790;-77.084;2023-09-19T01:52:38;101007.82;;;24.05;32.42
47809;BME280;33573;38.790;-77.084;2023-09-19T01:55:05;101007.04;;;24.17;31.82
47809;BME280;33573;38.790;-77.084;2023-09-19T01:57:27;101004.65;;;24.43;31.62
47809;BME280;33573;38.790;-77.084;2023-09-19T01:59:54;101006.57;;;24.12;31.94
47809;BME280;33573;38.790;-77.084;2023-09-19T02:02:10;101005.11;;;24.07;31.99
47809;BME280;33573;38.790;-77.084;2023-09-19T02:04:41;101006.96;;;24.06;31.57
47809;BME280;33573;38.790;-77.084;2023-09-19T02:07:06;101012.26;;;24.60;31.89
47809;BME280;33573;38.790;-77.084;2023-09-19T02:09:36;101013.50;;;23.96;32.47
47809;BME280;33573;38.790;-77.084;2023-09-19T02:11:57;101012.20;;;24.42;31.28
47809;BME280;33573;38.790;-77.084;2023-09-19T02:14:23;101014.28;;;24.89;30.99
47809;BME280;33573;38.790;-77.084;2023-09-19T02:16:43;101015.67;;;24.68;31.12
47809;BME280;33573;38.790;-77.084;2023-09-19T02:19:14;101023.86;;;24.80;31.34
47809;BME280;33573;38.790;-77.084;2023-09-19T02:21:34;101023.66;;;24.82;31.31
47809;BME280;33573;38.790;-77.084;2023-09-19T02:24:05;101024.03;;;24.43;31.16
47809;BME280;33573;38.790;-77.084;2023-09-19T02:26:30;101022.27;;;24.41;31.25
47809;BME280;33573;38.790;-77.084;2023-09-19T02:28:50;101029.70;;;24.54;31.55
47809;BME280;33573;38.790;-77.084;2023-09-19T02:31:20;101029.25;;;24.33;31.87
47809;BME280;33573;38.790;-77.084;2023-09-19T02:33:49;101030.45;;;24.07;32.05
47809;BME280;33573;38.790;-77.084;2023-09-19T02:36:11;101033.78;;;24.22;32.15
47809;BME280;33573;38.790;-77.084;2023-09-19T02:38:37;101039.18;;;24.41;32.03
47809;BME280;33573;38.790;-77.084;2023-09-19T02:40:57;101045.80;;;23.90;32.29
47809;BME280;33573;38.790;-77.084;2023-09-19T02:43:23;101045.01;;;24.01;32.53
47809;BME280;33573;38.790;-77.084;2023-09-19T02:45:48;101051.26;;;24.38;32.05
47809;BME280;33573;38.790;-77.084;2023-09-19T02:48:14;101052.49;;;24.27;32.19
47809;BME280;33573;38.790;-77.084;2023-09-19T02:50:44;101057.53;;;24.16;32.05
47809;BME280;33573;38.790;-77.084;2023-09-19T02:53:04;101058.20;;;24.09;32.36
47809;BME280;33573;38.790;-77.084;2023-09-19T02:55:29;101060.41;;;23.60;32.86
47809;BME280;33573;38.790;-77.084;2023-09-19T02:57:55;101062.33;;;24.17;32.31
47809;BME280;33573;38.790;-77.084;2023-09-19T03:00:21;101063.69;;;24.36;32.14
47809;BME280;33573;38.790;-77.084;2023-09-19T03:02:46;101066.18;;;24.12;31.97
47809;BME280;33573;38.790;-77.084;2023-09-19T03:05:11;101068.36;;;24.05;32.42
47809;BME280;33573;38.790;-77.084;2023-09-19T03:07:36;101075.41;;;24.19;32.31
47809;BME280;33573;38.790;-77.084;2023-09-19T03:10:02;101078.76;;;23.95;32.72
47809;BME280;33573;38.790;-77.084;2023-09-19T03:12:27;101081.36;;;23.64;32.83
47809;BME280;33573;38.790;-77.084;2023-09-19T03:14:53;101078.81;;;23.93;32.96
47809;BME280;33573;38.790;-77.084;2023-09-19T03:17:18;101079.32;;;23.89;32.79
47809;BME280;33573;38.790;-77.084;2023-09-19T03:19:43;101082.92;;;23.67;33.08
47809;BME280;33573;38.790;-77.084;2023-09-19T03:22:09;101083.96;;;23.98;32.83
47809;BME280;33573;38.790;-77.084;2023-09-19T03:24:44;101087.37;;;24.03;32.54
47809;BME280;33573;38.790;-77.084;2023-09-19T03:27:00;101092.28;;;24.08;33.30
47809;BME280;33573;38.790;-77.084;2023-09-19T03:29:25;101088.02;;;24.02;32.69
47809;BME280;33573;38.790;-77.084;2023-09-19T03:31:51;101089.64;;;23.74;33.33
47809;BME280;33573;38.790;-77.084;2023-09-19T03:34:16;101095.83;;;23.41;33.74
47809;BME280;33573;38.790;-77.084;2023-09-19T03:36:41;101094.58;;;23.44;33.74
47809;BME280;33573;38.790;-77.084;2023-09-19T03:39:12;101093.46;;;23.55;33.33
47809;BME280;33573;38.790;-77.084;2023-09-19T03:41:37;101093.18;;;22.87;34.15
47809;BME280;33573;38.790;-77.084;2023-09-19T03:44:03;101093.73;;;23.30;33.63
47809;BME280;33573;38.790;-77.084;2023-09-19T03:46:23;101097.09;;;23.88;32.83
47809;BME280;33573;38.790;-77.084;2023-09-19T03:48:49;101096.97;;;24.01;33.21
47809;BME280;33573;38.790;-77.084;2023-09-19T03:51:14;101099.90;;;23.35;33.36
47809;BME280;33573;38.790;-77.084;2023-09-19T03:53:39;101094.35;;;23.11;33.84
47809;BME280;33573;38.790;-77.084;2023-09-19T03:56:05;101092.38;;;23.59;33.44
47809;BME280;33573;38.790;-77.084;2023-09-19T03:58:31;101094.62;;;22.97;34.08
47809;BME280;33573;38.790;-77.084;2023-09-19T04:00:56;101093.96;;;23.69;33.27
47809;BME280;33573;38.790;-77.084;2023-09-19T04:03:21;101093.23;;;23.81;33.12
47809;BME280;33573;38.790;-77.084;2023-09-19T04:05:46;101096.96;;;23.50;33.61
47809;BME280;33573;38.790;-77.084;2023-09-19T04:08:16;101098.96;;;23.88;33.65
47809;BME280;33573;38.790;-77.084;2023-09-19T04:10:43;101108.35;;;23.31;34.01
47809;BME280;33573;38.790;-77.084;2023-09-19T04:13:07;101107.76;;;23.61;33.59
47809;BME280;33573;38.790;-77.084;2023-09-19T04:15:37;101109.16;;;23.88;33.21
47809;BME280;33573;38.790;-77.084;2023-09-19T04:17:58;101111.07;;;23.49;33.58
47809;BME280;33573;38.790;-77.084;2023-09-19T04:20:18;101108.79;;;23.39;33.65
47809;BME280;33573;38.790;-77.084;2023-09-19T04:22:44;101109.51;;;23.78;33.79
47809;BME280;33573;38.790;-77.084;2023-09-19T04:25:09;101111.74;;;23.84;33.73
47809;BME280;33573;38.790;-77.084;2023-09-19T04:27:39;101114.23;;;22.77;34.37
47809;BME280;33573;38.790;-77.084;2023-09-19T04:30:00;101119.18;;;23.49;33.91
47809;BME280;33573;38.790;-77.084;2023-09-19T04:32:30;101120.95;;;23.42;33.64
47809;BME280;33573;38.790;-77.084;2023-09-19T04:34:50;101124.70;;;23.47;34.11
47809;BME280;33573;38.790;-77.084;2023-09-19T04:37:20;101127.71;;;23.37;34.15
47809;BME280;33573;38.790;-77.084;2023-09-19T04:39:46;101134.81;;;23.73;34.00
47809;BME280;33573;38.790;-77.084;2023-09-19T04:42:15;101132.25;;;23.97;33.64
47809;BME280;33573;38.790;-77.084;2023-09-19T04:44:37;101137.99;;;23.21;34.09
47809;BME280;33573;38.790;-77.084;2023-09-19T04:47:02;101136.55;;;23.26;33.94
47809;BME280;33573;38.790;-77.084;2023-09-19T04:49:31;101139.24;;;23.70;33.97
47809;BME280;33573;38.790;-77.084;2023-09-19T04:51:53;101141.53;;;23.08;34.22
47809;BME280;33573;38.790;-77.084;2023-09-19T04:54:18;101144.83;;;23.61;34.05
47809;BME280;33573;38.790;-77.084;2023-09-19T04:56:38;101149.80;;;24.04;33.41
47809;BME280;33573;38.790;-77.084;2023-09-19T04:59:04;101151.87;;;23.27;34.18
47809;BME280;33573;38.790;-77.084;2023-09-19T05:01:34;101151.37;;;23.12;34.23
47809;BME280;33573;38.790;-77.084;2023-09-19T05:04:04;101159.39;;;23.51;33.88
47809;BME280;33573;38.790;-77.084;2023-09-19T05:06:25;101158.91;;;23.06;34.29
47809;BME280;33573;38.790;-77.084;2023-09-19T05:08:51;101156.65;;;23.38;34.22
47809;BME280;33573;38.790;-77.084;2023-09-19T05:11:20;101161.59;;;23.18;34.54
47809;BME280;33573;38.790;-77.084;2023-09-19T05:13:41;101168.43;;;22.78;35.13
47809;BME280;33573;38.790;-77.084;2023-09-19T05:16:02;101169.01;;;23.30;34.08
47809;BME280;33573;38.790;-77.084;2023-09-19T05:18:27;101175.35;;;23.05;34.64
47809;BME280;33573;38.790;-77.084;2023-09-19T05:20:52;101172.97;;;22.07;35.26
47809;BME280;33573;38.790;-77.084;2023-09-19T05:23:18;101174.46;;;23.26;34.79
47809;BME280;33573;38.790;-77.084;2023-09-19T05:25:43;101178.68;;;23.02;34.75
47809;BME280;33573;38.790;-77.084;2023-09-19T05:28:10;101179.39;;;22.67;35.25
47809;BME280;33573;38.790;-77.084;2023-09-19T05:30:34;101180.08;;;22.70;34.80
47809;BME280;33573;38.790;-77.084;2023-09-19T05:32:59;101181.03;;;23.34;34.42
47809;BME280;33573;38.790;-77.084;2023-09-19T05:35:25;101182.06;;;22.92;34.76
47809;BME280;33573;38.790;-77.084;2023-09-19T05:37:51;101182.35;;;22.66;35.07
47809;BME280;33573;38.790;-77.084;2023-09-19T05:40:16;101190.87;;;23.01;34.78
47809;BME280;33573;38.790;-77.084;2023-09-19T05:42:41;101191.06;;;23.09;34.57
47809;BME280;33573;38.790;-77.084;2023-09-19T05:45:07;101193.17;;;22.59;34.95
47809;BME280;33573;38.790;-77.084;2023-09-19T05:47:32;101189.20;;;22.60;35.14
47809;BME280;33573;38.790;-77.084;2023-09-19T05:49:57;101188.63;;;22.88;34.99
47809;BME280;33573;38.790;-77.084;2023-09-19T05:52:23;101183.58;;;22.74;34.78
47809;BME280;33573;38.790;-77.084;2023-09-19T05:54:48;101179.71;;;22.74;35.10
47809;BME280;33573;38.790;-77.084;2023-09-19T05:57:14;101176.92;;;22.66;35.07
47809;BME280;33573;38.790;-77.084;2023-09-19T05:59:39;101175.70;;;22.68;35.18
47809;BME280;33573;38.790;-77.084;2023-09-19T06:02:04;101176.58;;;22.21;35.78
47809;BME280;33573;38.790;-77.084;2023-09-19T06:04:29;101177.49;;;22.63;35.30
47809;BME280;33573;38.790;-77.084;2023-09-19T06:06:55;101177.70;;;22.40;35.32
47809;BME280;33573;38.790;-77.084;2023-09-19T06:09:20;101184.84;;;22.62;35.24
47809;BME280;33573;38.790;-77.084;2023-09-19T06:11:46;101185.47;;;22.53;35.12
47809;BME280;33573;38.790;-77.084;2023-09-19T06:14:11;101185.42;;;22.41;35.75
47809;BME280;33573;38.790;-77.084;2023-09-19T06:16:36;101186.92;;;22.58;35.48
47809;BME280;33573;38.790;-77.084;2023-09-19T06:19:01;101185.98;;;21.67;36.46
47809;BME280;33573;38.790;-77.084;2023-09-19T06:21:27;101190.29;;;21.81;36.65
47809;BME280;33573;38.790;-77.084;2023-09-19T06:23:52;101194.37;;;21.84;36.15
47809;BME280;33573;38.790;-77.084;2023-09-19T06:26:18;101199.03;;;21.86;36.06
47809;BME280;33573;38.790;-77.084;2023-09-19T06:28:43;101198.97;;;21.90;35.94
47809;BME280;33573;38.790;-77.084;2023-09-19T06:31:08;101199.04;;;22.56;35.43
47809;BME280;33573;38.790;-77.084;2023-09-19T06:33:34;101199.43;;;22.15;35.73
47809;BME280;33573;38.790;-77.084;2023-09-19T06:35:59;101200.33;;;22.42;35.68
47809;BME280;33573;38.790;-77.084;2023-09-19T06:38:25;101199.32;;;21.50;36.59
47809;BME280;33573;38.790;-77.084;2023-09-19T06:40:50;101199.79;;;21.93;36.17
47809;BME280;33573;38.790;-77.084;2023-09-19T06:43:16;101199.64;;;22.02;35.79
47809;BME280;33573;38.790;-77.084;2023-09-19T06:45:41;101196.25;;;22.44;35.17
47809;BME280;33573;38.790;-77.084;2023-09-19T06:48:07;101195.22;;;22.68;34.67
47809;BME280;33573;38.790;-77.084;2023-09-19T06:50:32;101193.83;;;22.47;35.00
47809;BME280;33573;38.790;-77.084;2023-09-19T06:52:58;101193.79;;;22.52;34.76
47809;BME280;33573;38.790;-77.084;2023-09-19T06:55:24;101194.29;;;22.83;35.01
47809;BME280;33573;38.790;-77.084;2023-09-19T06:57:49;101198.50;;;21.87;35.55
47809;BME280;33573;38.790;-77.084;2023-09-19T07:00:15;101200.67;;;21.96;35.76
47809;BME280;33573;38.790;-77.084;2023-09-19T07:02:40;101201.61;;;22.33;35.33
47809;BME280;33573;38.790;-77.084;2023-09-19T07:05:05;101202.40;;;22.36;35.26
47809;BME280;33573;38.790;-77.084;2023-09-19T07:07:30;101200.35;;;21.83;35.93
47809;BME280;33573;38.790;-77.084;2023-09-19T07:09:55;101198.45;;;22.12;35.42
47809;BME280;33573;38.790;-77.084;2023-09-19T07:12:21;101198.84;;;22.32;35.48
47809;BME280;33573;38.790;-77.084;2023-09-19T07:14:46;101196.85;;;22.02;35.71
47809;BME280;33573;38.790;-77.084;2023-09-19T07:17:11;101197.25;;;22.05;35.68
47809;BME280;33573;38.790;-77.084;2023-09-19T07:19:36;101194.71;;;22.03;35.74
47809;BME280;33573;38.790;-77.084;2023-09-19T07:22:07;101199.17;;;22.15;35.66
47809;BME280;33573;38.790;-77.084;2023-09-19T07:24:27;101198.12;;;22.30;35.12
47809;BME280;33573;38.790;-77.084;2023-09-19T07:26:57;101198.16;;;22.16;35.25
47809;BME280;33573;38.790;-77.084;2023-09-19T07:29:23;101196.56;;;21.95;35.71
47809;BME280;33573;38.790;-77.084;2023-09-19T07:31:43;101197.05;;;21.92;36.19
47809;BME280;33573;38.790;-77.084;2023-09-19T07:34:08;101197.98;;;21.85;36.16
47809;BME280;33573;38.790;-77.084;2023-09-19T07:36:43;101204.09;;;21.73;36.31
47809;BME280;33573;38.790;-77.084;2023-09-19T07:38:59;101198.28;;;21.52;36.07
47809;BME280;33573;38.790;-77.084;2023-09-19T07:41:25;101198.52;;;21.68;36.23
47809;BME280;33573;38.790;-77.084;2023-09-19T07:43:50;101204.17;;;21.79;36.13
47809;BME280;33573;38.790;-77.084;2023-09-19T07:46:16;101206.52;;;22.47;34.84
47809;BME280;33573;38.790;-77.084;2023-09-19T07:48:41;101208.60;;;21.85;36.05
47809;BME280;33573;38.790;-77.084;2023-09-19T07:51:07;101212.76;;;21.55;36.72
47809;BME280;33573;38.790;-77.084;2023-09-19T07:53:32;101212.75;;;21.85;35.87
47809;BME280;33573;38.790;-77.084;2023-09-19T07:56:02;101210.62;;;21.51;36.39
47809;BME280;33573;38.790;-77.084;2023-09-19T07:58:22;101214.13;;;21.27;36.86
47809;BME280;33573;38.790;-77.084;2023-09-19T08:00:47;101214.08;;;21.72;35.83
47809;BME280;33573;38.790;-77.084;2023-09-19T08:03:13;101213.51;;;21.15;36.74
47809;BME280;33573;38.790;-77.084;2023-09-19T08:05:38;101211.94;;;21.78;36.07
47809;BME280;33573;38.790;-77.084;2023-09-19T08:08:04;101208.43;;;21.46;36.57
47809;BME280;33573;38.790;-77.084;2023-09-19T08:10:28;101209.64;;;21.31;36.57
47809;BME280;33573;38.790;-77.084;2023-09-19T08:12:54;101209.67;;;22.14;35.82
47809;BME280;33573;38.790;-77.084;2023-09-19T08:15:20;101212.67;;;21.62;35.98
47809;BME280;33573;38.790;-77.084;2023-09-19T08:17:45;101211.24;;;21.48;36.42
47809;BME280;33573;38.790;-77.084;2023-09-19T08:20:11;101212.61;;;21.36;36.75
47809;BME280;33573;38.790;-77.084;2023-09-19T08:22:36;101212.10;;;21.04;37.09
47809;BME280;33573;38.790;-77.084;2023-09-19T08:25:02;101210.58;;;21.34;36.60
47809;BME280;33573;38.790;-77.084;2023-09-19T08:27:27;101209.72;;;21.88;36.24
47809;BME280;33573;38.790;-77.084;2023-09-19T08:29:53;101206.32;;;21.59;36.67
47809;BME280;33573;38.790;-77.084;2023-09-19T08:32:18;101207.26;;;21.21;36.74
47809;BME280;33573;38.790;-77.084;2023-09-19T08:34:44;101215.08;;;20.96;37.27
47809;BME280;33573;38.790;-77.084;2023-09-19T08:37:09;101215.44;;;21.23;36.96
47809;BME280;33573;38.790;-77.084;2023-09-19T08:39:35;101215.13;;;21.26;36.98
47809;BME280;33573;38.790;-77.084;2023-09-19T08:42:01;101220.94;;;20.95;37.17
47809;BME280;33573;38.790;-77.084;2023-09-19T08:44:25;101221.53;;;21.00;37.60
47809;BME280;33573;38.790;-77.084;2023-09-19T08:46:53;101223.26;;;20.62;38.08
47809;BME280;33573;38.790;-77.084;2023-09-19T08:49:24;101225.89;;;20.10;38.31
47809;BME280;33573;38.790;-77.084;2023-09-19T08:51:43;101230.75;;;21.02;37.61
47809;BME280;33573;38.790;-77.084;2023-09-19T08:54:07;101227.35;;;20.70;37.53
47809;BME280;33573;38.790;-77.084;2023-09-19T08:56:41;101225.78;;;21.05;37.37
47809;BME280;33573;38.790;-77.084;2023-09-19T08:59:03;101226.85;;;20.45;38.30
47809;BME280;33573;38.790;-77.084;2023-09-19T09:01:23;101230.40;;;21.12;37.31
47809;BME280;33573;38.790;-77.084;2023-09-19T09:03:57;101231.03;;;20.26;38.38
47809;BME280;33573;38.790;-77.084;2023-09-19T09:06:15;101236.81;;;20.61;37.97
47809;BME280;33573;38.790;-77.084;2023-09-19T09:08:43;101240.78;;;21.02;37.74
47809;BME280;33573;38.790;-77.084;2023-09-19T09:11:13;101239.71;;;20.36;38.47
47809;BME280;33573;38.790;-77.084;2023-09-19T09:13:36;101242.75;;;20.78;38.20
47809;BME280;33573;38.790;-77.084;2023-09-19T09:16:00;101246.36;;;20.68;38.25
47809;BME280;33573;38.790;-77.084;2023-09-19T09:18:29;101249.84;;;20.43;38.59
47809;BME280;33573;38.790;-77.084;2023-09-19T09:20:45;101255.97;;;20.51;38.23
47809;BME280;33573;38.790;-77.084;2023-09-19T09:23:16;101257.34;;;20.44;38.17
47809;BME280;33573;38.790;-77.084;2023-09-19T09:25:49;101261.57;;;20.65;38.24
47809;BME280;33573;38.790;-77.084;2023-09-19T09:28:06;101266.57;;;20.46;37.96
47809;BME280;33573;38.790;-77.084;2023-09-19T09:30:36;101269.14;;;20.41;37.82
47809;BME280;33573;38.790;-77.084;2023-09-19T09:33:10;101271.64;;;20.41;38.80
47809;BME280;33573;38.790;-77.084;2023-09-19T09:35:22;101277.90;;;20.18;38.07
47809;BME280;33573;38.790;-77.084;2023-09-19T09:40:17;101278.94;;;20.33;37.91
47809;BME280;33573;38.790;-77.084;2023-09-19T09:42:38;101281.11;;;20.16;38.71
47809;BME280;33573;38.790;-77.084;2023-09-19T09:49:54;101289.33;;;20.36;38.32
47809;BME280;33573;38.790;-77.084;2023-09-19T09:52:20;101291.67;;;20.57;38.58
47809;BME280;33573;38.790;-77.084;2023-09-19T09:57:11;101292.65;;;20.73;37.68
47809;BME280;33573;38.790;-77.084;2023-09-19T09:59:47;101292.71;;;20.64;38.23
47809;BME280;33573;38.790;-77.084;2023-09-19T10:01:56;101294.67;;;20.42;38.26
47809;BME280;33573;38.790;-77.084;2023-09-19T10:04:29;101296.95;;;20.28;38.43
47809;BME280;33573;38.790;-77.084;2023-09-19T10:06:52;101295.76;;;20.76;37.94
47809;BME280;33573;38.790;-77.084;2023-09-19T10:09:20;101296.13;;;20.65;37.89
47809;BME280;33573;38.790;-77.084;2023-09-19T10:11:43;101299.96;;;20.72;37.73
47809;BME280;33573;38.790;-77.084;2023-09-19T10:14:09;101304.54;;;19.78;39.18
47809;BME280;33573;38.790;-77.084;2023-09-19T10:16:39;101302.72;;;20.40;38.04
47809;BME280;33573;38.790;-77.084;2023-09-19T10:18:59;101300.65;;;20.45;38.02
47809;BME280;33573;38.790;-77.084;2023-09-19T10:21:24;101300.19;;;20.51;38.01
47809;BME280;33573;38.790;-77.084;2023-09-19T10:23:50;101303.31;;;20.63;37.60
47809;BME280;33573;38.790;-77.084;2023-09-19T10:26:17;101309.34;;;20.42;38.04
47809;BME280;33573;38.790;-77.084;2023-09-19T10:28:41;101316.04;;;20.61;38.02
47809;BME280;33573;38.790;-77.084;2023-09-19T10:31:10;101317.36;;;20.48;37.95
47809;BME280;33573;38.790;-77.084;2023-09-19T10:33:36;101323.01;;;20.97;37.28
47809;BME280;33573;38.790;-77.084;2023-09-19T10:35:59;101328.91;;;20.46;38.12
47809;BME280;33573;38.790;-77.084;2023-09-19T10:38:19;101338.72;;;19.83;38.66
47809;BME280;33573;38.790;-77.084;2023-09-19T10:40:50;101345.02;;;20.61;38.12
47809;BME280;33573;38.790;-77.084;2023-09-19T10:43:16;101352.42;;;20.39;38.50
47809;BME280;33573;38.790;-77.084;2023-09-19T10:45:39;101359.83;;;19.41;39.29
47809;BME280;33573;38.790;-77.084;2023-09-19T10:48:04;101368.79;;;19.86;39.25
47809;BME280;33573;38.790;-77.084;2023-09-19T10:50:24;101372.58;;;20.00;39.06
47809;BME280;33573;38.790;-77.084;2023-09-19T10:52:55;101376.62;;;19.75;39.03
47809;BME280;33573;38.790;-77.084;2023-09-19T10:55:20;101374.12;;;19.77;39.13
47809;BME280;33573;38.790;-77.084;2023-09-19T10:57:44;101380.97;;;19.88;39.20
47809;BME280;33573;38.790;-77.084;2023-09-19T11:00:07;101384.65;;;19.81;39.08
47809;BME280;33573;38.790;-77.084;2023-09-19T11:02:36;101391.89;;;19.62;39.10
47809;BME280;33573;38.790;-77.084;2023-09-19T11:05:10;101398.68;;;20.41;38.23
47809;BME280;33573;38.790;-77.084;2023-09-19T11:07:31;101401.24;;;19.23;39.50
47809;BME280;33573;38.790;-77.084;2023-09-19T11:09:54;101401.94;;;19.42;38.96
47809;BME280;33573;38.790;-77.084;2023-09-19T11:14:40;101408.53;;;19.87;39.07
47809;BME280;33573;38.790;-77.084;2023-09-19T11:22:04;101422.03;;;20.25;37.93
47809;BME280;33573;38.790;-77.084;2023-09-19T11:24:28;101427.17;;;20.03;38.59
47809;BME280;33573;38.790;-77.084;2023-09-19T11:26:51;101433.21;;;20.70;37.82
47809;BME280;33573;38.790;-77.084;2023-09-19T11:29:25;101434.51;;;19.94;38.33
47809;BME280;33573;38.790;-77.084;2023-09-19T11:31:44;101443.71;;;20.18;38.52
47809;BME280;33573;38.790;-77.084;2023-09-19T11:36:35;101449.37;;;20.84;37.44
47809;BME280;33573;38.790;-77.084;2023-09-19T11:38:58;101447.73;;;20.86;37.32
47809;BME280;33573;38.790;-77.084;2023-09-19T11:43:53;101450.71;;;20.32;37.68
47809;BME280;33573;38.790;-77.084;2023-09-19T11:46:14;101453.68;;;20.67;37.87
47809;BME280;33573;38.790;-77.084;2023-09-19T11:48:40;101456.31;;;20.96;36.90
47809;BME280;33573;38.790;-77.084;2023-09-19T11:51:00;101465.70;;;20.44;37.69
47809;BME280;33573;38.790;-77.084;2023-09-19T11:53:32;101466.53;;;21.22;36.21
47809;BME280;33573;38.790;-77.084;2023-09-19T11:55:55;101468.59;;;21.55;36.48
47809;BME280;33573;38.790;-77.084;2023-09-19T11:58:16;101472.74;;;21.24;36.54
47809;BME280;33573;38.790;-77.084;2023-09-19T12:00:42;101478.49;;;21.14;36.40
47809;BME280;33573;38.790;-77.084;2023-09-19T12:03:12;101480.75;;;20.95;36.80
47809;BME280;33573;38.790;-77.084;2023-09-19T12:05:41;101485.70;;;20.68;37.38
47809;BME280;33573;38.790;-77.084;2023-09-19T12:07:57;101484.78;;;21.47;36.21
47809;BME280;33573;38.790;-77.084;2023-09-19T12:10:22;101485.44;;;21.20;36.33
47809;BME280;33573;38.790;-77.084;2023-09-19T12:12:57;101483.95;;;20.78;37.33
47809;BME280;33573;38.790;-77.084;2023-09-19T12:15:23;101485.00;;;20.98;36.94
47809;BME280;33573;38.790;-77.084;2023-09-19T12:17:39;101486.22;;;20.52;37.48
47809;BME280;33573;38.790;-77.084;2023-09-19T12:20:05;101485.31;;;21.45;36.50
47809;BME280;33573;38.790;-77.084;2023-09-19T12:27:20;101485.22;;;21.25;36.55
47809;BME280;33573;38.790;-77.084;2023-09-19T12:29:46;101488.67;;;21.73;35.94
47809;BME280;33573;38.790;-77.084;2023-09-19T12:32:16;101493.22;;;21.69;35.82
47809;BME280;33573;38.790;-77.084;2023-09-19T12:34:41;101495.22;;;21.62;36.16
47809;BME280;33573;38.790;-77.084;2023-09-19T12:37:07;101494.78;;;21.54;36.25
47809;BME280;33573;38.790;-77.084;2023-09-19T12:39:28;101494.79;;;21.78;35.55
47809;BME280;33573;38.790;-77.084;2023-09-19T12:41:54;101497.64;;;21.57;35.66
47809;BME280;33573;38.790;-77.084;2023-09-19T12:44:18;101501.90;;;21.74;35.72
47809;BME280;33573;38.790;-77.084;2023-09-19T12:46:49;101501.35;;;21.83;35.97